Time;durP1;ratioP1;P1;durP2;ratioP2;P2;SDS_P1;SDS_P2;PMS_P1;PMS_P2;Temp;Humidity;BMP_temperature;BMP_pressure;BME280_temperature;BME280_humidity;BME280_pressure;Samples;Min_cycle;Max_cycle;Signal;HPM_P1;HPM_P2
2023/07/15 00:04:08;;;;;;;3.46;2.12;;;;;;;23.58;49.82;98529.22;7229481;40;20265;31
2023/07/15 00:09:30;;;;;;;2.90;2.10;;;;;;;23.59;49.75;98543.81;7261310;39;20264;31
2023/07/15 00:15:05;;;;;;;2.42;2.13;;;;;;;23.52;50.22;98534.97;7295447;39;20248;31
2023/07/15 00:20:40;;;;;;;2.40;2.00;;;;;;;23.45;49.92;98543.47;7246071;40;20430;31
2023/07/15 00:26:15;;;;;;;3.22;2.12;;;;;;;23.36;50.39;98534.84;7182384;40;20324;31
2023/07/15 00:31:51;;;;;;;4.22;2.50;;;;;;;23.34;50.57;98530.72;7176492;40;21171;31
2023/07/15 00:37:26;;;;;;;3.67;2.20;;;;;;;23.31;49.93;98532.06;7135117;40;20270;31
2023/07/15 00:43:19;;;;;;;2.58;2.30;;;;;;;23.26;50.70;98533.94;7125187;40;20262;31
2023/07/15 00:48:56;;;;;;;5.15;2.30;;;;;;;23.17;50.77;98530.84;7175236;40;20364;31
2023/07/15 00:54:32;;;;;;;4.65;2.40;;;;;;;23.12;51.56;98539.09;7211477;40;20253;31
2023/07/15 01:00:09;;;;;;;3.00;2.00;;;;;;;23.05;51.36;98541.22;7246813;40;21101;31
2023/07/15 01:10:41;;;;;;;3.10;2.25;;;;;;;23.02;51.17;98539.00;7255341;40;21153;31
2023/07/15 01:21:32;;;;;;;5.40;2.55;;;;;;;22.85;51.71;98539.16;7248734;39;21258;31
2023/07/15 01:27:11;;;;;;;5.20;2.30;;;;;;;22.73;51.79;98543.97;7255443;40;20256;31
2023/07/15 01:32:28;;;;;;;3.33;2.10;;;;;;;22.54;52.79;98548.16;7213211;40;20420;31
2023/07/15 01:38:04;;;;;;;3.67;2.30;;;;;;;22.45;52.61;98544.22;7214185;40;20312;31
2023/07/15 01:43:40;;;;;;;3.22;2.47;;;;;;;22.33;53.82;98536.16;7227042;40;20253;31
2023/07/15 01:49:02;;;;;;;3.17;2.30;;;;;;;22.22;53.04;98534.34;7208624;40;20302;31
2023/07/15 01:54:21;;;;;;;3.50;2.30;;;;;;;22.28;53.13;98538.84;7216452;40;20249;31
2023/07/15 01:59:57;;;;;;;2.42;2.22;;;;;;;22.17;53.11;98534.31;7220771;40;20281;31
2023/07/15 02:05:12;;;;;;;2.85;2.55;;;;;;;22.25;52.74;98530.25;7206695;40;20270;31
2023/07/15 02:15:48;;;;;;;3.37;2.60;;;;;;;22.22;53.51;98526.12;7259588;40;20276;31
2023/07/15 02:21:26;;;;;;;5.67;2.93;;;;;;;21.96;53.59;98513.19;7241684;40;20261;31
2023/07/15 02:26:59;;;;;;;5.85;3.58;;;;;;;21.80;54.37;98520.41;7254142;40;20366;31
2023/07/15 02:32:32;;;;;;;4.42;3.00;;;;;;;21.82;54.41;98506.41;7209702;40;20382;31
2023/07/15 02:38:05;;;;;;;5.80;2.95;;;;;;;21.91;54.04;98497.47;7093023;39;20269;31
2023/07/15 02:43:21;;;;;;;5.05;3.30;;;;;;;21.92;53.58;98493.69;7225772;40;20240;31
2023/07/15 02:48:58;;;;;;;4.03;2.95;;;;;;;21.88;53.92;98489.75;7219216;40;20250;31
2023/07/15 02:54:31;;;;;;;4.14;3.24;;;;;;;21.90;53.64;98487.56;7182404;40;20266;31
2023/07/15 03:00:10;;;;;;;4.32;2.85;;;;;;;21.86;54.93;98471.88;7209962;40;20317;31
2023/07/15 03:05:36;;;;;;;3.47;2.40;;;;;;;21.87;55.22;98481.78;7254259;40;20250;31
2023/07/15 03:11:08;;;;;;;3.90;2.70;;;;;;;21.82;55.01;98468.00;7264591;40;20360;31
2023/07/15 03:16:26;;;;;;;3.33;2.65;;;;;;;21.80;55.16;98473.75;7172949;40;20258;31
2023/07/15 03:22:01;;;;;;;5.48;2.94;;;;;;;21.75;55.89;98479.19;7204719;40;20265;31
2023/07/15 03:27:18;;;;;;;4.97;3.20;;;;;;;21.52;56.42;98479.44;7213846;40;20249;31
2023/07/15 03:32:56;;;;;;;4.57;3.08;;;;;;;21.35;56.00;98479.47;7236593;40;20264;31
2023/07/15 03:38:27;;;;;;;4.50;3.17;;;;;;;21.46;57.22;98464.81;7217466;40;20370;31
2023/07/15 03:43:48;;;;;;;7.57;2.87;;;;;;;21.53;56.38;98475.59;7190730;40;20332;31
2023/07/15 03:49:19;;;;;;;5.90;3.26;;;;;;;21.22;56.79;98485.34;7210836;40;20281;31
2023/07/15 03:59:57;;;;;;;3.50;2.65;;;;;;;21.31;57.76;98483.81;7204164;40;20272;31
2023/07/15 04:05:29;;;;;;;4.05;2.90;;;;;;;21.40;57.25;98492.44;7230605;40;20249;31
2023/07/15 04:11:04;;;;;;;3.70;2.70;;;;;;;21.39;57.99;98483.38;7211315;40;20298;31
2023/07/15 04:16:37;;;;;;;4.90;2.90;;;;;;;21.35;57.32;98481.41;7193583;40;20242;31
2023/07/15 04:21:54;;;;;;;6.45;2.95;;;;;;;21.36;58.30;98478.41;7172682;40;20242;31
2023/07/15 04:27:26;;;;;;;3.97;2.83;;;;;;;21.42;58.18;98474.63;7229720;40;20276;31
2023/07/15 04:33:02;;;;;;;5.07;3.20;;;;;;;21.42;59.88;98471.88;7206833;40;20282;31
2023/07/15 04:43:27;;;;;;;2.90;2.20;;;;;;;21.68;58.50;98461.22;7220738;40;20262;31
2023/07/15 04:49:00;;;;;;;3.12;2.58;;;;;;;21.81;59.08;98460.84;7237176;40;20277;31
2023/07/15 04:59:24;;;;;;;3.70;2.60;;;;;;;22.01;57.58;98478.41;7312581;39;21270;31
2023/07/15 05:05:00;;;;;;;4.97;2.60;;;;;;;21.96;58.48;98470.13;7285475;40;20323;31
2023/07/15 05:10:19;;;;;;;3.65;2.90;;;;;;;22.13;57.75;98453.53;7284599;39;21053;31
2023/07/15 05:15:51;;;;;;;5.25;3.00;;;;;;;22.24;58.08;98458.06;7290558;39;20276;31
2023/07/15 05:21:26;;;;;;;4.87;2.97;;;;;;;22.44;58.33;98454.66;7222461;40;21347;31
2023/07/15 05:26:43;;;;;;;3.47;2.60;;;;;;;22.69;57.26;98454.03;7233468;40;20348;31
2023/07/15 05:32:14;;;;;;;4.63;2.50;;;;;;;22.80;57.50;98451.16;7214361;40;20261;31
2023/07/15 05:37:49;;;;;;;5.25;2.55;;;;;;;22.87;58.60;98453.66;7166452;40;20384;31
2023/07/15 05:43:23;;;;;;;3.44;2.76;;;;;;;23.03;58.53;98449.13;7191674;40;20331;31
2023/07/15 05:54:00;;;;;;;2.95;2.30;;;;;;;23.49;57.11;98451.03;7172395;40;21080;31
2023/07/15 06:04:39;;;;;;;5.17;2.70;;;;;;;24.00;55.88;98451.22;7249596;39;20645;31
2023/07/15 06:10:15;;;;;;;4.75;2.62;;;;;;;24.24;54.68;98450.47;7234319;40;20242;31
2023/07/15 06:15:37;;;;;;;3.25;2.47;;;;;;;24.36;54.85;98449.38;7203589;40;20264;31
2023/07/15 06:21:07;;;;;;;3.26;2.40;;;;;;;24.52;53.37;98448.31;7182267;40;20270;31
2023/07/15 06:26:55;;;;;;;6.32;2.37;;;;;;;24.60;53.83;98439.47;7152373;40;20293;31
2023/07/15 06:32:28;;;;;;;5.12;2.72;;;;;;;24.64;53.73;98448.84;7116022;40;20274;31
2023/07/15 06:38:03;;;;;;;4.15;2.60;;;;;;;24.64;53.03;98443.34;7243840;40;20381;31
2023/07/15 06:43:39;;;;;;;4.82;2.58;;;;;;;24.68;54.13;98455.47;7194312;40;20246;31
2023/07/15 06:48:59;;;;;;;4.00;2.50;;;;;;;24.71;54.40;98463.16;7197575;40;20269;31
2023/07/15 06:54:34;;;;;;;5.80;2.55;;;;;;;24.74;54.54;98456.28;7226780;40;20238;31
2023/07/15 07:00:10;;;;;;;3.10;2.63;;;;;;;24.75;55.25;98463.47;7226971;40;20242;31
2023/07/15 07:05:45;;;;;;;5.93;2.55;;;;;;;24.75;58.12;98469.78;7194229;40;20345;31
2023/07/15 07:11:17;;;;;;;9.98;2.85;;;;;;;24.83;57.42;98452.72;7174038;40;20258;31
2023/07/15 07:16:51;;;;;;;4.37;2.60;;;;;;;25.17;54.64;98460.41;7180016;40;20293;31
2023/07/15 07:22:23;;;;;;;5.43;2.78;;;;;;;25.49;53.84;98467.19;7142241;40;20345;31
2023/07/15 07:27:58;;;;;;;4.37;2.67;;;;;;;25.77;53.31;98481.50;7136823;40;20275;31
2023/07/15 07:33:34;;;;;;;5.50;2.70;;;;;;;26.17;51.25;98480.47;7121976;41;20318;31
2023/07/15 07:38:54;;;;;;;8.55;2.78;;;;;;;26.30;51.03;98482.63;7195021;40;20279;31
2023/07/15 07:44:14;;;;;;;4.22;2.47;;;;;;;26.46;51.13;98479.47;7244842;40;20257;31
2023/07/15 07:49:51;;;;;;;4.33;2.83;;;;;;;26.84;51.45;98485.28;7221874;40;20246;31
2023/07/15 07:55:26;;;;;;;7.10;2.90;;;;;;;27.05;50.65;98494.25;7191311;40;20348;31
2023/07/15 08:00:58;;;;;;;4.78;3.00;;;;;;;27.01;51.39;98484.87;7185823;40;20559;31
2023/07/15 08:06:31;;;;;;;4.73;2.60;;;;;;;27.18;49.98;98486.09;7211762;40;20316;31
2023/07/15 08:16:52;;;;;;;5.70;2.50;;;;;;;27.62;48.07;98499.78;7289687;39;21168;31
2023/07/15 08:22:25;;;;;;;6.22;3.00;;;;;;;27.50;49.56;98499.37;7305330;39;20275;31
2023/07/15 08:27:45;;;;;;;5.12;2.62;;;;;;;27.47;48.14;98505.44;7226838;40;20256;31
2023/07/15 08:33:20;;;;;;;5.92;2.68;;;;;;;27.51;47.47;98501.03;7232202;40;20249;31
2023/07/15 08:38:53;;;;;;;4.00;2.47;;;;;;;27.56;48.68;98505.66;7222245;40;20268;31
2023/07/15 08:44:25;;;;;;;4.30;2.67;;;;;;;27.64;48.42;98516.94;7231719;40;20245;31
2023/07/15 08:50:00;;;;;;;4.07;2.60;;;;;;;27.67;47.73;98529.34;7195866;40;20332;31
2023/07/15 08:55:36;;;;;;;4.15;2.47;;;;;;;27.89;47.63;98526.88;7216850;40;20374;31
2023/07/15 09:01:07;;;;;;;5.12;2.40;;;;;;;28.12;46.90;98530.78;7199590;40;20266;31
2023/07/15 09:06:39;;;;;;;5.78;2.30;;;;;;;28.09;45.17;98551.56;7227196;40;20258;31
2023/07/15 09:12:12;;;;;;;3.20;2.20;;;;;;;27.99;45.65;98561.97;7169117;40;20380;31
2023/07/15 09:17:29;;;;;;;3.75;2.20;;;;;;;27.82;43.97;98545.00;7122485;40;20351;31
2023/07/15 09:23:05;;;;;;;3.17;2.33;;;;;;;27.63;45.59;98548.50;7172727;40;20332;31
2023/07/15 09:28:38;;;;;;;2.85;2.55;;;;;;;27.52;45.05;98541.41;6967833;40;20321;31
2023/07/15 09:34:17;;;;;;;7.10;2.53;;;;;;;27.37;45.63;98574.78;7166308;40;20300;31
2023/07/15 09:39:34;;;;;;;4.03;2.60;;;;;;;27.42;46.12;98558.13;7217100;40;20281;31
2023/07/15 09:50:15;;;;;;;4.28;2.70;;;;;;;27.94;44.69;98550.94;7280655;39;21014;31
2023/07/15 09:55:50;;;;;;;6.25;2.80;;;;;;;27.97;46.20;98555.88;7262635;40;20244;31
2023/07/15 10:01:22;;;;;;;4.70;2.90;;;;;;;27.98;45.12;98552.81;7255174;40;20355;31
2023/07/15 10:06:55;;;;;;;4.80;2.93;;;;;;;27.88;46.21;98538.25;7200017;40;20246;31
2023/07/15 10:12:27;;;;;;;4.73;2.90;;;;;;;27.77;46.26;98534.78;7146895;40;20270;31
2023/07/15 10:17:59;;;;;;;4.75;2.90;;;;;;;27.71;47.21;98550.63;7183904;40;20271;31
2023/07/15 10:23:32;;;;;;;7.82;3.06;;;;;;;27.66;46.77;98538.78;7234353;40;20246;31
2023/07/15 10:29:04;;;;;;;8.40;3.00;;;;;;;27.54;47.59;98536.44;7228495;40;20457;31
2023/07/15 10:34:35;;;;;;;7.56;3.02;;;;;;;27.45;48.35;98521.53;7206707;40;20285;31
2023/07/15 10:40:09;;;;;;;4.65;2.72;;;;;;;27.44;48.36;98542.03;7177927;40;20246;31
2023/07/15 10:45:49;;;;;;;3.80;3.12;;;;;;;27.49;49.89;98507.94;7167201;40;20350;31
2023/07/15 10:51:24;;;;;;;6.55;3.03;;;;;;;27.53;49.32;98511.78;7217127;40;20298;31
2023/07/15 10:56:57;;;;;;;5.00;2.90;;;;;;;27.55;49.95;98513.16;7213360;40;20272;31
2023/07/15 11:02:29;;;;;;;6.95;2.85;;;;;;;27.47;49.13;98530.34;7224986;40;20347;31
2023/07/15 11:07:47;;;;;;;5.40;2.97;;;;;;;27.37;50.74;98546.25;7215037;40;20452;31
2023/07/15 11:13:29;;;;;;;3.78;2.80;;;;;;;27.57;50.02;98559.91;7198643;40;20338;31
2023/07/15 11:18:47;;;;;;;5.58;3.08;;;;;;;27.85;50.23;98508.38;7233989;40;20266;31
2023/07/15 11:24:33;;;;;;;7.45;3.45;;;;;;;28.06;48.75;98501.44;7266575;40;20261;31
2023/07/15 11:30:10;;;;;;;5.18;3.00;;;;;;;27.92;49.91;98501.34;7222661;40;20265;31
2023/07/15 11:35:45;;;;;;;6.50;3.20;;;;;;;28.09;49.54;98500.84;7154360;40;20264;31
2023/07/15 11:46:25;;;;;;;6.15;3.20;;;;;;;28.13;49.78;98463.13;7179294;40;20293;31
2023/07/15 11:57:01;;;;;;;8.13;3.10;;;;;;;28.52;49.34;98460.06;7247491;40;20258;31
2023/07/15 12:02:34;;;;;;;10.02;3.50;;;;;;;28.58;48.28;98470.78;7253289;40;20361;31
2023/07/15 12:12:56;;;;;;;5.37;3.00;;;;;;;29.24;47.64;98444.69;7253558;40;21406;31
2023/07/15 12:18:31;;;;;;;6.00;3.10;;;;;;;29.82;47.02;98433.00;7250286;39;20256;31
2023/07/15 12:24:06;;;;;;;7.17;3.40;;;;;;;30.24;46.56;98445.69;7264179;40;20273;31
2023/07/15 12:29:24;;;;;;;3.58;2.98;;;;;;;30.67;45.65;98452.47;7275892;40;20241;31
2023/07/15 12:34:56;;;;;;;5.33;3.20;;;;;;;31.03;44.90;98441.28;7257221;40;20269;31
2023/07/15 12:40:14;;;;;;;4.14;3.00;;;;;;;31.33;45.77;98444.41;7265767;40;20260;31
2023/07/15 12:45:46;;;;;;;5.62;3.40;;;;;;;31.52;44.70;98445.78;7255717;40;20257;31
2023/07/15 12:51:18;;;;;;;3.47;2.85;;;;;;;31.29;43.04;98435.84;7285848;40;20257;31
2023/07/15 12:56:54;;;;;;;3.12;2.82;;;;;;;31.05;44.95;98444.59;7236522;40;20262;31
2023/07/15 13:02:11;;;;;;;5.87;3.12;;;;;;;31.10;45.23;98440.84;7233341;40;20250;31
2023/07/15 13:07:44;;;;;;;6.70;3.24;;;;;;;31.20;45.08;98430.25;7224424;40;20254;31
2023/07/15 13:13:16;;;;;;;5.32;3.25;;;;;;;31.28;45.43;98428.66;7224055;40;20300;31
2023/07/15 13:18:48;;;;;;;6.20;3.20;;;;;;;31.13;45.65;98443.81;7227289;40;20253;31
2023/07/15 13:24:24;;;;;;;7.45;3.05;;;;;;;30.73;46.33;98442.88;7195277;40;20281;31
2023/07/15 13:29:58;;;;;;;5.47;3.00;;;;;;;30.04;47.60;98479.53;7128551;40;20358;31
2023/07/15 13:35:15;;;;;;;5.67;3.60;;;;;;;29.71;48.92;98510.19;7148086;40;20382;31
2023/07/15 13:40:52;;;;;;;9.02;3.60;;;;;;;29.37;48.81;98505.00;7190244;40;20366;31
2023/07/15 13:46:09;;;;;;;5.95;3.30;;;;;;;29.14;50.00;98500.37;7144485;40;20357;31
2023/07/15 13:51:26;;;;;;;6.05;3.30;;;;;;;28.77;50.77;98481.88;7222147;40;20268;31
2023/07/15 13:57:02;;;;;;;6.05;3.45;;;;;;;28.52;51.37;98498.91;7254520;40;20249;31
2023/07/15 14:02:19;;;;;;;4.53;3.22;;;;;;;28.33;53.01;98496.12;7252942;39;20620;31
2023/07/15 14:12:57;;;;;;;4.17;3.13;;;;;;;28.12;53.10;98472.59;7312578;39;20288;31
2023/07/15 14:18:29;;;;;;;6.25;3.40;;;;;;;28.29;52.56;98466.53;7251841;40;20261;31
2023/07/15 14:29:07;;;;;;;4.53;3.20;;;;;;;28.27;53.35;98493.72;7252171;40;21354;31
2023/07/15 14:39:43;;;;;;;5.40;3.40;;;;;;;28.02;54.16;98508.72;7144489;40;20272;31
2023/07/15 14:50:21;;;;;;;4.70;3.37;;;;;;;27.88;54.74;98516.91;7199082;40;21080;31
2023/07/15 15:00:42;;;;;;;5.90;3.03;;;;;;;27.77;55.25;98496.84;7276773;40;21230;31
2023/07/15 15:06:19;;;;;;;6.40;3.10;;;;;;;27.79;55.16;98469.66;7236452;40;20245;31
2023/07/15 15:11:38;;;;;;;6.13;3.23;;;;;;;27.85;54.39;98478.72;7247624;40;20534;31
2023/07/15 15:16:56;;;;;;;4.46;3.28;;;;;;;28.01;54.22;98494.03;7316761;39;20374;31
2023/07/15 15:22:32;;;;;;;3.97;3.00;;;;;;;28.26;53.32;98478.22;7223015;40;20261;31
2023/07/15 15:27:49;;;;;;;4.15;3.45;;;;;;;28.56;52.27;98502.72;7242240;40;20253;31
2023/07/15 15:33:06;;;;;;;4.23;2.97;;;;;;;28.66;52.63;98506.16;7234020;40;20249;31
2023/07/15 15:38:39;;;;;;;4.65;3.10;;;;;;;28.65;53.46;98515.59;7254912;40;20400;31
2023/07/15 15:43:59;;;;;;;3.00;2.70;;;;;;;28.78;53.36;98497.41;7243518;40;20348;31
2023/07/15 15:49:31;;;;;;;3.93;2.70;;;;;;;28.78;53.97;98502.13;7286541;39;20275;31
2023/07/15 15:55:07;;;;;;;2.97;2.67;;;;;;;28.89;53.87;98486.94;7285682;40;20260;31
2023/07/15 16:00:43;;;;;;;3.47;2.90;;;;;;;28.83;53.76;98482.63;7295408;39;20257;31
2023/07/15 16:06:11;;;;;;;4.25;2.75;;;;;;;28.86;52.16;98479.25;7209419;40;20268;31
2023/07/15 16:11:44;;;;;;;3.33;2.75;;;;;;;28.92;51.65;98466.91;7203158;40;20254;31
2023/07/15 16:17:16;;;;;;;3.62;3.00;;;;;;;28.91;51.69;98468.87;7203261;40;20281;31
2023/07/15 16:22:34;;;;;;;4.10;2.90;;;;;;;29.06;51.44;98462.22;7003142;40;21390;31
2023/07/15 16:28:05;;;;;;;5.37;3.20;;;;;;;29.09;52.37;98467.19;7209236;40;20353;31
2023/07/15 16:33:19;;;;;;;3.37;2.80;;;;;;;29.23;52.31;98454.13;7231076;40;20328;31
2023/07/15 16:38:51;;;;;;;4.27;3.00;;;;;;;29.17;51.12;98454.56;7248312;40;20271;31
2023/07/15 16:44:24;;;;;;;4.25;3.15;;;;;;;28.91;51.86;98454.19;7295580;40;20249;31
2023/07/15 16:49:42;;;;;;;3.30;2.70;;;;;;;28.69;52.06;98454.81;7236828;40;20360;31
2023/07/15 16:55:02;;;;;;;4.25;2.75;;;;;;;28.52;52.44;98446.22;7255818;40;20253;31
2023/07/15 17:00:38;;;;;;;4.65;2.75;;;;;;;28.53;53.65;98440.34;7255232;40;20502;31
2023/07/15 17:06:10;;;;;;;4.60;2.60;;;;;;;28.50;53.43;98440.97;7251324;40;20257;31
2023/07/15 17:11:27;;;;;;;6.20;2.60;;;;;;;28.36;53.19;98440.06;7251835;40;20253;31
2023/07/15 17:17:01;;;;;;;3.17;2.50;;;;;;;28.15;52.74;98471.97;7214892;40;20367;31
2023/07/15 17:22:18;;;;;;;3.80;2.60;;;;;;;27.96;53.46;98484.94;7150546;40;20361;31
2023/07/15 17:27:53;;;;;;;3.33;2.37;;;;;;;27.73;54.98;98456.97;7196456;40;20418;31
2023/07/15 17:33:24;;;;;;;4.22;2.68;;;;;;;27.54;55.37;98461.66;7147196;40;20256;31
2023/07/15 17:38:56;;;;;;;3.90;3.15;;;;;;;27.48;54.90;98451.75;7155656;40;20338;31
2023/07/15 17:44:31;;;;;;;3.58;2.90;;;;;;;27.48;55.61;98473.91;7157593;40;20333;31
2023/07/15 17:50:04;;;;;;;3.10;2.50;;;;;;;27.33;56.01;98454.69;7194039;40;20341;31
2023/07/15 18:00:40;;;;;;;3.55;2.20;;;;;;;27.20;56.23;98466.44;7233786;40;20346;31
2023/07/15 18:06:13;;;;;;;2.78;2.55;;;;;;;27.18;56.93;98475.03;7213414;40;20475;31
2023/07/15 18:11:48;;;;;;;3.90;2.70;;;;;;;27.07;57.09;98461.59;7202256;40;20344;31
2023/07/15 18:17:09;;;;;;;5.06;2.74;;;;;;;27.04;57.19;98482.34;7174872;40;20270;31
2023/07/15 18:22:41;;;;;;;3.80;2.20;;;;;;;26.96;57.50;98471.91;7175314;40;20324;31
2023/07/15 18:28:14;;;;;;;3.78;2.70;;;;;;;26.92;57.27;98464.50;7181950;40;20269;31
2023/07/15 18:33:33;;;;;;;3.85;2.30;;;;;;;26.83;57.31;98481.69;7215059;40;20304;31
2023/07/15 18:39:08;;;;;;;2.26;2.00;;;;;;;26.65;57.89;98492.59;7195373;40;20250;31
2023/07/15 18:44:26;;;;;;;2.82;2.34;;;;;;;26.60;57.70;98495.41;7234244;40;20350;31
2023/07/15 18:55:04;;;;;;;2.70;2.30;;;;;;;26.35;59.16;98558.06;7257172;40;21192;31
2023/07/15 19:05:25;;;;;;;7.72;3.00;;;;;;;25.64;66.24;98575.97;7291198;40;21370;31
2023/07/15 19:11:00;;;;;;;5.47;2.95;;;;;;;24.83;70.91;98548.38;7314334;39;20448;31
2023/07/15 19:16:21;;;;;;;4.65;1.90;;;;;;;24.84;69.09;98561.03;7288654;40;20275;31
2023/07/15 19:21:38;;;;;;;4.90;2.25;;;;;;;24.67;70.51;98559.38;7291134;39;20295;31
2023/07/15 19:27:14;;;;;;;3.50;2.10;;;;;;;24.58;70.18;98624.41;7284412;40;20337;31
2023/07/15 19:32:46;;;;;;;2.70;2.20;;;;;;;24.43;69.72;98653.84;7226713;40;20374;31
2023/07/15 19:38:21;;;;;;;4.76;2.60;;;;;;;24.26;71.58;98601.72;7212659;40;20352;31
2023/07/15 19:43:55;;;;;;;3.30;1.80;;;;;;;24.18;70.04;98588.44;7196237;40;20258;31
2023/07/15 19:49:30;;;;;;;4.22;2.30;;;;;;;24.20;71.68;98555.97;7122429;40;20435;31
2023/07/15 19:55:06;;;;;;;2.83;1.80;;;;;;;24.23;69.87;98577.44;7136448;40;20261;31
2023/07/15 20:00:42;;;;;;;3.00;1.85;;;;;;;24.13;71.73;98561.66;7165131;40;20336;31
2023/07/15 20:06:02;;;;;;;2.00;1.70;;;;;;;24.07;70.86;98557.25;7194360;40;20448;31
2023/07/15 20:11:20;;;;;;;2.50;1.53;;;;;;;24.03;70.66;98593.88;7235418;40;20440;31
2023/07/15 20:16:53;;;;;;;1.75;1.65;;;;;;;23.92;71.85;98619.66;7220246;40;20300;31
2023/07/15 20:22:28;;;;;;;2.55;1.52;;;;;;;23.85;71.33;98650.22;7222500;40;20249;31
2023/07/15 20:27:48;;;;;;;2.25;1.70;;;;;;;23.73;71.17;98664.19;7242495;40;20256;31
2023/07/15 20:33:22;;;;;;;2.03;1.62;;;;;;;23.73;71.30;98686.19;7293262;39;20280;31
2023/07/15 20:38:39;;;;;;;5.46;1.84;;;;;;;23.89;69.50;98673.34;7202045;40;20261;31
2023/07/15 20:44:11;;;;;;;2.90;1.80;;;;;;;23.84;70.57;98656.81;7199483;40;20462;31
2023/07/15 20:54:48;;;;;;;7.62;2.33;;;;;;;23.86;71.84;98692.34;7202065;40;21221;31
2023/07/15 21:00:22;;;;;;;2.90;1.83;;;;;;;23.77;73.04;98712.09;7283358;39;20252;31
2023/07/15 21:05:38;;;;;;;3.10;1.85;;;;;;;23.77;72.54;98676.31;7293851;40;20268;31
2023/07/15 21:16:15;;;;;;;2.50;2.10;;;;;;;23.77;72.99;98684.56;7293210;39;21138;31
2023/07/15 21:21:33;;;;;;;3.47;2.72;;;;;;;23.76;71.68;98699.44;7228868;40;20247;31
2023/07/15 21:27:08;;;;;;;3.30;2.30;;;;;;;23.66;74.47;98746.13;7234773;40;20285;31
2023/07/15 21:32:41;;;;;;;4.70;2.30;;;;;;;23.69;73.87;98755.81;7212766;40;20246;31
2023/07/15 21:38:01;;;;;;;5.57;2.90;;;;;;;23.62;74.55;98810.22;7229792;40;20284;31
2023/07/15 21:43:36;;;;;;;4.32;2.80;;;;;;;23.44;75.96;98814.16;7278029;40;20249;31
2023/07/15 21:49:09;;;;;;;2.90;2.40;;;;;;;23.54;75.26;98806.00;7235539;40;20288;31
2023/07/15 21:59:49;;;;;;;3.00;2.40;;;;;;;23.45;76.18;98812.25;7307127;39;20479;31
2023/07/15 22:05:25;;;;;;;5.13;2.63;;;;;;;23.53;76.30;98820.03;7226677;40;20272;31
2023/07/15 22:10:58;;;;;;;4.57;2.53;;;;;;;23.60;74.20;98812.41;7206668;40;20258;31
2023/07/15 22:21:35;;;;;;;5.32;2.00;;;;;;;23.64;73.93;98861.16;7206228;40;21232;31
2023/07/15 22:31:56;;;;;;;3.08;1.90;;;;;;;23.38;73.61;98848.19;7190737;40;20273;31
2023/07/15 22:42:35;;;;;;;3.25;2.10;;;;;;;23.17;74.15;98931.50;7267888;39;21042;31
2023/07/15 22:53:00;;;;;;;3.04;1.80;;;;;;;22.98;73.64;98932.91;7282828;39;20352;31
2023/07/15 22:58:36;;;;;;;2.80;1.77;;;;;;;22.68;75.10;98914.03;7290691;40;20337;31
2023/07/15 23:09:12;;;;;;;4.97;2.03;;;;;;;22.52;75.08;98862.66;7174469;40;21067;31
2023/07/15 23:19:49;;;;;;;2.10;1.45;;;;;;;22.40;75.84;98893.81;7261565;40;21149;31
2023/07/15 23:30:23;;;;;;;3.10;1.70;;;;;;;22.26;76.26;98921.84;7270665;39;21249;31
2023/07/15 23:35:56;;;;;;;2.53;1.77;;;;;;;22.33;76.56;98925.28;7311413;39;20280;31
2023/07/15 23:41:28;;;;;;;2.30;1.80;;;;;;;22.36;75.99;98892.66;7068496;40;20369;31
2023/07/15 23:46:45;;;;;;;3.70;1.54;;;;;;;22.32;75.84;98882.41;7195057;40;20262;31
2023/07/15 23:52:22;;;;;;;2.30;1.63;;;;;;;22.21;75.46;98921.75;7163866;40;20326;31
2023/07/15 23:57:54;;;;;;;2.05;1.77;;;;;;;21.97;76.01;98976.81;7073209;41;20284;31
